PST,Max TemperatureF,Mean TemperatureF,Min TemperatureF,Max Dew PointF,MeanDew PointF,Min DewpointF,Max Humidity, Mean Humidity, Min Humidity, Max Sea Level PressureIn, Mean Sea Level PressureIn, Min Sea Level PressureIn, Max VisibilityMiles, Mean VisibilityMiles, Min VisibilityMiles, Max Wind SpeedMPH, Mean Wind SpeedMPH, Max Gust SpeedMPH,PrecipitationIn, CloudCover, Events, WindDirDegrees
2012-12-1,81,66,51,54,51,48,89,61,33,30.07,30.01,29.97,10,10,10,13,5,16,0.00,0,,312
2012-12-2,78,67,55,53,52,49,78,59,40,30.02,29.98,29.93,10,10,10,12,4,14,0.00,0,,301
2012-12-3,80,67,54,56,52,49,77,58,39,30.12,30.04,29.99,10,10,10,14,6,21,0.00,0,,309
2012-12-4,81,66,51,53,50,47,89,61,33,30.20,30.13,30.10,10,10,10,8,2,10,0.00,0,,340
2012-12-5,82,64,45,49,45,41,89,58,26,30.09,29.99,29.90,10,10,10,7,3,8,0.00,0,,337
2012-12-6,81,64,47,52,46,42,80,54,28,29.91,29.85,29.78,10,10,9,10,3,13,0.00,0,,323
2012-12-7,83,65,46,47,41,27,86,51,15,29.92,29.88,29.84,10,10,10,13,5,18,0.00,0,,331
2012-12-8,79,58,37,38,32,25,70,42,14,29.95,29.89,29.83,10,10,10,12,2,13,0.00,0,,336
2012-12-9,80,60,39,49,36,27,70,43,15,30.16,30.00,29.91,10,10,10,12,4,14,0.00,0,,297
2012-12-10,71,54,36,36,32,28,76,49,22,30.19,30.11,30.03,10,10,9,10,3,13,0.00,0,,176
2012-12-11,69,52,35,46,36,29,70,48,26,30.07,29.99,29.93,10,10,10,7,3,,0.00,0,,338
2012-12-12,66,52,37,43,38,32,85,61,36,29.95,29.87,29.80,10,10,10,8,2,10,0.00,0,,305
2012-12-13,58,53,47,57,49,41,100,83,66,29.82,29.75,29.66,10,10,7,9,3,12,0.09,4,Rain,11
2012-12-14,65,56,47,46,38,30,83,59,34,29.95,29.82,29.66,10,10,10,16,6,20,0.00,3,,324
2012-12-15,62,54,46,44,42,37,77,63,48,30.05,29.97,29.91,10,10,10,8,3,10,0.00,2,,116
2012-12-16,64,50,36,45,40,35,100,70,40,30.15,30.09,30.04,10,10,6,10,3,15,0.00,1,,132
2012-12-17,66,52,37,46,42,35,92,72,52,30.14,30.06,29.95,10,10,6,9,1,12,0.00,0,,226
2012-12-18,62,51,40,53,43,16,93,84,75,29.93,29.84,29.72,10,7,4,9,1,12,T,5,Rain,321
2012-12-19,63,48,32,23,15,0,56,32,8,30.37,30.20,29.94,10,10,10,16,5,21,0.00,0,,322
2012-12-20,61,42,22,24,19,13,75,45,15,30.38,30.27,30.18,10,10,7,6,3,8,0.00,0,,341
2012-12-21,66,46,25,32,24,14,75,45,14,30.16,30.10,30.05,10,10,10,7,3,9,0.00,0,,329
2012-12-22,68,48,28,32,26,19,72,44,16,30.14,30.08,30.03,10,10,10,10,4,13,0.00,0,,303
2012-12-23,68,50,31,45,36,26,75,55,35,30.15,30.07,30.01,10,10,8,7,2,9,0.00,0,,249
2012-12-24,75,57,39,48,42,37,89,58,27,30.04,29.96,29.86,10,10,10,20,4,23,0.00,0,,325
2012-12-25,64,51,37,36,29,15,76,46,16,30.17,30.08,30.00,10,10,10,8,4,10,0.00,0,,88
2012-12-26,67,49,30,39,31,23,75,51,27,29.95,29.89,29.82,10,10,10,13,2,18,0.00,0,,325
2012-12-27,66,49,32,38,31,26,89,57,24,30.09,29.95,29.89,10,10,8,12,3,15,0.00,1,,299
2012-12-28,65,48,31,32,26,19,70,44,18,30.20,30.13,30.10,10,10,10,12,5,14,0.00,0,,357
2012-12-29,61,47,32,37,29,25,70,49,27,30.11,30.03,29.96,10,10,10,10,4,15,0.00,3,,2
2012-12-30,64,48,32,38,33,29,92,60,28,30.02,29.93,29.85,10,10,10,17,5,23,0.00,2,Rain,324
2012-12-31,64,48,31,32,26,15,85,51,16,30.25,30.16,30.04,10,10,6,13,4,15,0.00,0,,344